sensor_id;sensor_type;location;lat;lon;timestamp;temperature;humidity
12481;DHT22;6305;48.398;11.762;2024-02-28T00:01:09;3.50;99.90
12481;DHT22;6305;48.398;11.762;2024-02-28T00:03:36;3.40;99.90
12481;DHT22;6305;48.398;11.762;2024-02-28T00:06:03;3.30;99.90
12481;DHT22;6305;48.398;11.762;2024-02-28T00:08:31;3.20;99.90
12481;DHT22;6305;48.398;11.762;2024-02-28T00:10:58;3.10;99.90
12481;DHT22;6305;48.398;11.762;2024-02-28T00:13:25;3.10;99.90
12481;DHT22;6305;48.398;11.762;2024-02-28T00:15:52;3.00;99.90
12481;DHT22;6305;48.398;11.762;2024-02-28T00:18:20;3.10;99.90
12481;DHT22;6305;48.398;11.762;2024-02-28T00:20:47;3.00;99.90
12481;DHT22;6305;48.398;11.762;2024-02-28T00:23:14;3.10;99.90
12481;DHT22;6305;48.398;11.762;2024-02-28T00:25:41;3.00;99.90
12481;DHT22;6305;48.398;11.762;2024-02-28T00:28:07;2.90;99.90
12481;DHT22;6305;48.398;11.762;2024-02-28T00:30:35;2.90;99.90
12481;DHT22;6305;48.398;11.762;2024-02-28T00:33:02;2.80;99.90
12481;DHT22;6305;48.398;11.762;2024-02-28T00:35:32;2.70;99.90
12481;DHT22;6305;48.398;11.762;2024-02-28T00:37:59;2.70;99.90
12481;DHT22;6305;48.398;11.762;2024-02-28T00:40:26;2.60;99.90
12481;DHT22;6305;48.398;11.762;2024-02-28T00:42:54;2.60;99.90
12481;DHT22;6305;48.398;11.762;2024-02-28T00:45:21;2.60;99.90
12481;DHT22;6305;48.398;11.762;2024-02-28T00:47:47;2.60;99.90
12481;DHT22;6305;48.398;11.762;2024-02-28T00:50:15;2.70;99.90
12481;DHT22;6305;48.398;11.762;2024-02-28T00:52:43;2.70;99.90
12481;DHT22;6305;48.398;11.762;2024-02-28T00:55:10;2.70;99.90
12481;DHT22;6305;48.398;11.762;2024-02-28T00:57:37;2.70;99.90
12481;DHT22;6305;48.398;11.762;2024-02-28T01:00:05;2.70;99.90
12481;DHT22;6305;48.398;11.762;2024-02-28T01:02:32;2.60;99.90
12481;DHT22;6305;48.398;11.762;2024-02-28T01:04:59;2.60;99.90
12481;DHT22;6305;48.398;11.762;2024-02-28T01:07:26;2.60;99.90
12481;DHT22;6305;48.398;11.762;2024-02-28T01:09:55;2.70;99.90
12481;DHT22;6305;48.398;11.762;2024-02-28T01:12:22;2.70;99.90
12481;DHT22;6305;48.398;11.762;2024-02-28T01:14:49;2.70;99.90
12481;DHT22;6305;48.398;11.762;2024-02-28T01:17:16;2.70;99.90
12481;DHT22;6305;48.398;11.762;2024-02-28T01:19:43;2.60;99.90
12481;DHT22;6305;48.398;11.762;2024-02-28T01:22:10;2.50;99.90
12481;DHT22;6305;48.398;11.762;2024-02-28T01:24:37;2.50;99.90
12481;DHT22;6305;48.398;11.762;2024-02-28T01:27:05;2.50;99.90
12481;DHT22;6305;48.398;11.762;2024-02-28T01:29:32;2.60;99.90
12481;DHT22;6305;48.398;11.762;2024-02-28T01:31:59;2.70;99.90
12481;DHT22;6305;48.398;11.762;2024-02-28T01:34:26;2.80;99.90
12481;DHT22;6305;48.398;11.762;2024-02-28T01:36:53;2.90;99.90
12481;DHT22;6305;48.398;11.762;2024-02-28T01:39:20;2.90;99.90
12481;DHT22;6305;48.398;11.762;2024-02-28T01:41:51;2.90;99.90
12481;DHT22;6305;48.398;11.762;2024-02-28T01:44:21;2.80;99.90
12481;DHT22;6305;48.398;11.762;2024-02-28T01:46:48;2.70;99.90
12481;DHT22;6305;48.398;11.762;2024-02-28T01:49:16;2.70;99.90
12481;DHT22;6305;48.398;11.762;2024-02-28T01:51:44;2.70;99.90
12481;DHT22;6305;48.398;11.762;2024-02-28T01:54:12;2.70;99.90
12481;DHT22;6305;48.398;11.762;2024-02-28T01:56:39;2.80;99.90
12481;DHT22;6305;48.398;11.762;2024-02-28T01:59:07;2.90;99.90
12481;DHT22;6305;48.398;11.762;2024-02-28T02:01:37;3.00;99.90
12481;DHT22;6305;48.398;11.762;2024-02-28T02:04:05;3.10;99.90
12481;DHT22;6305;48.398;11.762;2024-02-28T02:06:32;3.10;99.90
12481;DHT22;6305;48.398;11.762;2024-02-28T02:09:00;3.10;99.90
12481;DHT22;6305;48.398;11.762;2024-02-28T02:11:28;3.10;99.90
12481;DHT22;6305;48.398;11.762;2024-02-28T02:13:55;3.10;99.90
12481;DHT22;6305;48.398;11.762;2024-02-28T02:16:23;3.20;99.90
12481;DHT22;6305;48.398;11.762;2024-02-28T02:18:53;3.20;99.90
12481;DHT22;6305;48.398;11.762;2024-02-28T02:21:24;3.20;99.90
12481;DHT22;6305;48.398;11.762;2024-02-28T02:23:52;3.20;99.90
12481;DHT22;6305;48.398;11.762;2024-02-28T02:26:19;3.20;99.90
12481;DHT22;6305;48.398;11.762;2024-02-28T02:28:46;3.20;99.90
12481;DHT22;6305;48.398;11.762;2024-02-28T02:31:13;3.20;99.90
12481;DHT22;6305;48.398;11.762;2024-02-28T02:33:41;3.10;99.90
12481;DHT22;6305;48.398;11.762;2024-02-28T02:36:08;3.00;99.90
12481;DHT22;6305;48.398;11.762;2024-02-28T02:38:35;3.00;99.90
12481;DHT22;6305;48.398;11.762;2024-02-28T02:41:04;2.90;99.90
12481;DHT22;6305;48.398;11.762;2024-02-28T02:43:31;2.80;99.90
12481;DHT22;6305;48.398;11.762;2024-02-28T02:45:58;2.80;99.90
12481;DHT22;6305;48.398;11.762;2024-02-28T02:48:25;2.80;99.90
12481;DHT22;6305;48.398;11.762;2024-02-28T02:50:52;2.70;99.90
12481;DHT22;6305;48.398;11.762;2024-02-28T02:53:19;2.60;99.90
12481;DHT22;6305;48.398;11.762;2024-02-28T02:55:46;2.60;99.90
12481;DHT22;6305;48.398;11.762;2024-02-28T02:58:15;2.50;99.90
12481;DHT22;6305;48.398;11.762;2024-02-28T03:00:42;2.50;99.90
12481;DHT22;6305;48.398;11.762;2024-02-28T03:03:09;2.50;99.90
12481;DHT22;6305;48.398;11.762;2024-02-28T03:05:35;2.60;99.90
12481;DHT22;6305;48.398;11.762;2024-02-28T03:08:03;2.60;99.90
12481;DHT22;6305;48.398;11.762;2024-02-28T03:10:30;2.60;99.90
12481;DHT22;6305;48.398;11.762;2024-02-28T03:12:57;2.60;99.90
12481;DHT22;6305;48.398;11.762;2024-02-28T03:15:25;2.50;99.90
12481;DHT22;6305;48.398;11.762;2024-02-28T03:17:52;2.50;99.90
12481;DHT22;6305;48.398;11.762;2024-02-28T03:20:19;2.50;99.90
12481;DHT22;6305;48.398;11.762;2024-02-28T03:22:47;2.40;99.90
12481;DHT22;6305;48.398;11.762;2024-02-28T03:25:13;2.30;99.90
12481;DHT22;6305;48.398;11.762;2024-02-28T03:27:40;2.30;99.90
12481;DHT22;6305;48.398;11.762;2024-02-28T03:30:08;2.30;99.90
12481;DHT22;6305;48.398;11.762;2024-02-28T03:32:37;2.30;99.90
12481;DHT22;6305;48.398;11.762;2024-02-28T03:35:04;2.20;99.90
12481;DHT22;6305;48.398;11.762;2024-02-28T03:37:34;2.20;99.90
12481;DHT22;6305;48.398;11.762;2024-02-28T03:40:01;2.10;99.90
12481;DHT22;6305;48.398;11.762;2024-02-28T03:42:28;2.10;99.90
12481;DHT22;6305;48.398;11.762;2024-02-28T03:44:55;2.00;99.90
12481;DHT22;6305;48.398;11.762;2024-02-28T03:47:22;2.00;99.90
12481;DHT22;6305;48.398;11.762;2024-02-28T03:49:51;2.00;99.90
12481;DHT22;6305;48.398;11.762;2024-02-28T03:52:18;1.90;99.90
12481;DHT22;6305;48.398;11.762;2024-02-28T03:54:45;1.90;99.90
12481;DHT22;6305;48.398;11.762;2024-02-28T03:57:12;2.00;99.90
12481;DHT22;6305;48.398;11.762;2024-02-28T03:59:40;2.00;99.90
12481;DHT22;6305;48.398;11.762;2024-02-28T04:02:08;2.00;99.90
12481;DHT22;6305;48.398;11.762;2024-02-28T04:04:35;2.00;99.90
12481;DHT22;6305;48.398;11.762;2024-02-28T04:07:03;2.00;99.90
12481;DHT22;6305;48.398;11.762;2024-02-28T04:09:30;1.90;99.90
12481;DHT22;6305;48.398;11.762;2024-02-28T04:11:57;1.90;99.90
12481;DHT22;6305;48.398;11.762;2024-02-28T04:14:24;1.80;99.90
12481;DHT22;6305;48.398;11.762;2024-02-28T04:16:51;1.70;99.90
12481;DHT22;6305;48.398;11.762;2024-02-28T04:19:18;1.60;99.90
12481;DHT22;6305;48.398;11.762;2024-02-28T04:21:45;1.60;99.90
12481;DHT22;6305;48.398;11.762;2024-02-28T04:24:14;1.60;99.90
12481;DHT22;6305;48.398;11.762;2024-02-28T04:26:40;1.60;99.90
12481;DHT22;6305;48.398;11.762;2024-02-28T04:29:07;1.60;99.90
12481;DHT22;6305;48.398;11.762;2024-02-28T04:31:39;1.60;99.90
12481;DHT22;6305;48.398;11.762;2024-02-28T04:34:06;1.70;99.90
12481;DHT22;6305;48.398;11.762;2024-02-28T04:36:33;1.70;99.90
12481;DHT22;6305;48.398;11.762;2024-02-28T04:39:00;1.80;99.90
12481;DHT22;6305;48.398;11.762;2024-02-28T04:41:29;2.00;99.90
12481;DHT22;6305;48.398;11.762;2024-02-28T04:43:56;2.00;99.90
12481;DHT22;6305;48.398;11.762;2024-02-28T04:46:23;2.20;99.90
12481;DHT22;6305;48.398;11.762;2024-02-28T04:48:50;2.20;99.90
12481;DHT22;6305;48.398;11.762;2024-02-28T04:51:17;2.20;99.90
12481;DHT22;6305;48.398;11.762;2024-02-28T04:53:44;2.20;99.90
12481;DHT22;6305;48.398;11.762;2024-02-28T04:56:11;2.30;99.90
12481;DHT22;6305;48.398;11.762;2024-02-28T04:58:39;2.30;99.90
12481;DHT22;6305;48.398;11.762;2024-02-28T05:01:06;2.40;99.90
12481;DHT22;6305;48.398;11.762;2024-02-28T05:03:33;2.40;99.90
12481;DHT22;6305;48.398;11.762;2024-02-28T05:06:00;2.50;99.90
12481;DHT22;6305;48.398;11.762;2024-02-28T05:08:27;2.40;99.90
12481;DHT22;6305;48.398;11.762;2024-02-28T05:10:54;2.40;99.90
12481;DHT22;6305;48.398;11.762;2024-02-28T05:13:21;2.40;99.90
12481;DHT22;6305;48.398;11.762;2024-02-28T05:15:51;2.40;99.90
12481;DHT22;6305;48.398;11.762;2024-02-28T05:18:18;2.50;99.90
12481;DHT22;6305;48.398;11.762;2024-02-28T05:20:45;2.60;99.90
12481;DHT22;6305;48.398;11.762;2024-02-28T05:23:12;2.70;99.90
12481;DHT22;6305;48.398;11.762;2024-02-28T05:25:39;2.70;99.90
12481;DHT22;6305;48.398;11.762;2024-02-28T05:28:06;2.70;99.90
12481;DHT22;6305;48.398;11.762;2024-02-28T05:30:33;2.70;99.90
12481;DHT22;6305;48.398;11.762;2024-02-28T05:33:01;2.70;99.90
12481;DHT22;6305;48.398;11.762;2024-02-28T05:35:28;2.80;99.90
12481;DHT22;6305;48.398;11.762;2024-02-28T05:37:55;2.80;99.90
12481;DHT22;6305;48.398;11.762;2024-02-28T05:40:22;2.80;99.90
12481;DHT22;6305;48.398;11.762;2024-02-28T05:42:50;2.80;99.90
12481;DHT22;6305;48.398;11.762;2024-02-28T05:45:16;2.70;99.90
12481;DHT22;6305;48.398;11.762;2024-02-28T05:47:43;2.70;99.90
12481;DHT22;6305;48.398;11.762;2024-02-28T05:50:12;2.70;99.90
12481;DHT22;6305;48.398;11.762;2024-02-28T05:52:41;2.70;99.90
12481;DHT22;6305;48.398;11.762;2024-02-28T05:55:08;2.70;99.90
12481;DHT22;6305;48.398;11.762;2024-02-28T05:57:36;2.70;99.90
12481;DHT22;6305;48.398;11.762;2024-02-28T06:00:03;2.70;99.90
12481;DHT22;6305;48.398;11.762;2024-02-28T06:02:37;2.80;99.90
12481;DHT22;6305;48.398;11.762;2024-02-28T06:05:05;2.90;99.90
12481;DHT22;6305;48.398;11.762;2024-02-28T06:07:33;3.00;99.90
12481;DHT22;6305;48.398;11.762;2024-02-28T06:10:00;3.10;99.90
12481;DHT22;6305;48.398;11.762;2024-02-28T06:12:27;3.10;99.90
12481;DHT22;6305;48.398;11.762;2024-02-28T06:14:54;3.20;99.90
12481;DHT22;6305;48.398;11.762;2024-02-28T06:17:21;3.20;99.90
12481;DHT22;6305;48.398;11.762;2024-02-28T06:19:48;3.30;99.90
12481;DHT22;6305;48.398;11.762;2024-02-28T06:22:15;3.40;99.90
12481;DHT22;6305;48.398;11.762;2024-02-28T06:24:45;3.40;99.90
12481;DHT22;6305;48.398;11.762;2024-02-28T06:27:12;3.50;99.90
12481;DHT22;6305;48.398;11.762;2024-02-28T06:29:39;3.50;99.90
12481;DHT22;6305;48.398;11.762;2024-02-28T06:32:07;3.60;99.90
12481;DHT22;6305;48.398;11.762;2024-02-28T06:34:35;3.60;99.90
12481;DHT22;6305;48.398;11.762;2024-02-28T06:37:02;3.60;99.90
12481;DHT22;6305;48.398;11.762;2024-02-28T06:39:29;3.60;99.90
12481;DHT22;6305;48.398;11.762;2024-02-28T06:41:57;3.70;99.90
12481;DHT22;6305;48.398;11.762;2024-02-28T06:44:24;3.70;99.90
12481;DHT22;6305;48.398;11.762;2024-02-28T06:46:51;3.70;99.90
12481;DHT22;6305;48.398;11.762;2024-02-28T06:49:18;3.70;99.90
12481;DHT22;6305;48.398;11.762;2024-02-28T06:51:45;3.80;99.90
12481;DHT22;6305;48.398;11.762;2024-02-28T06:54:12;3.80;99.90
12481;DHT22;6305;48.398;11.762;2024-02-28T06:56:39;3.90;99.90
12481;DHT22;6305;48.398;11.762;2024-02-28T06:59:08;3.90;99.90
12481;DHT22;6305;48.398;11.762;2024-02-28T07:01:35;3.90;99.90
12481;DHT22;6305;48.398;11.762;2024-02-28T07:04:03;4.00;99.90
12481;DHT22;6305;48.398;11.762;2024-02-28T07:06:30;4.00;99.90
12481;DHT22;6305;48.398;11.762;2024-02-28T07:08:57;4.00;99.90
12481;DHT22;6305;48.398;11.762;2024-02-28T07:11:24;4.00;99.90
12481;DHT22;6305;48.398;11.762;2024-02-28T07:13:51;4.10;99.90
12481;DHT22;6305;48.398;11.762;2024-02-28T07:16:20;4.10;99.90
12481;DHT22;6305;48.398;11.762;2024-02-28T07:18:47;4.10;99.90
12481;DHT22;6305;48.398;11.762;2024-02-28T07:21:14;4.20;99.90
12481;DHT22;6305;48.398;11.762;2024-02-28T07:23:41;4.20;99.90
12481;DHT22;6305;48.398;11.762;2024-02-28T07:26:08;4.30;99.90
12481;DHT22;6305;48.398;11.762;2024-02-28T07:28:35;4.30;99.90
12481;DHT22;6305;48.398;11.762;2024-02-28T07:31:03;4.40;99.90
12481;DHT22;6305;48.398;11.762;2024-02-28T07:33:31;4.40;99.90
12481;DHT22;6305;48.398;11.762;2024-02-28T07:35:58;4.50;99.90
12481;DHT22;6305;48.398;11.762;2024-02-28T07:38:26;4.50;99.90
12481;DHT22;6305;48.398;11.762;2024-02-28T07:40:54;4.60;99.90
12481;DHT22;6305;48.398;11.762;2024-02-28T07:43:21;4.70;99.90
12481;DHT22;6305;48.398;11.762;2024-02-28T07:45:48;4.70;99.90
12481;DHT22;6305;48.398;11.762;2024-02-28T07:48:15;4.80;99.90
12481;DHT22;6305;48.398;11.762;2024-02-28T07:50:44;4.80;99.90
12481;DHT22;6305;48.398;11.762;2024-02-28T07:53:12;4.80;99.90
12481;DHT22;6305;48.398;11.762;2024-02-28T07:55:39;4.90;99.90
12481;DHT22;6305;48.398;11.762;2024-02-28T07:58:06;4.90;99.90
12481;DHT22;6305;48.398;11.762;2024-02-28T08:00:33;5.00;99.90
12481;DHT22;6305;48.398;11.762;2024-02-28T08:02:59;5.00;99.90
12481;DHT22;6305;48.398;11.762;2024-02-28T08:05:26;5.10;99.90
12481;DHT22;6305;48.398;11.762;2024-02-28T08:07:55;5.10;99.90
12481;DHT22;6305;48.398;11.762;2024-02-28T08:10:22;5.20;99.90
12481;DHT22;6305;48.398;11.762;2024-02-28T08:12:49;5.20;99.90
12481;DHT22;6305;48.398;11.762;2024-02-28T08:15:16;5.30;99.90
12481;DHT22;6305;48.398;11.762;2024-02-28T08:17:43;5.40;99.90
12481;DHT22;6305;48.398;11.762;2024-02-28T08:20:11;5.50;99.90
12481;DHT22;6305;48.398;11.762;2024-02-28T08:22:39;5.60;99.90
12481;DHT22;6305;48.398;11.762;2024-02-28T08:25:08;5.60;99.90
12481;DHT22;6305;48.398;11.762;2024-02-28T08:27:36;5.60;99.90
12481;DHT22;6305;48.398;11.762;2024-02-28T08:30:05;5.70;99.90
12481;DHT22;6305;48.398;11.762;2024-02-28T08:32:32;5.70;99.90
12481;DHT22;6305;48.398;11.762;2024-02-28T08:34:59;5.80;99.90
12481;DHT22;6305;48.398;11.762;2024-02-28T08:37:26;5.80;99.90
12481;DHT22;6305;48.398;11.762;2024-02-28T08:39:54;5.80;99.90
12481;DHT22;6305;48.398;11.762;2024-02-28T08:42:25;5.90;99.90
12481;DHT22;6305;48.398;11.762;2024-02-28T08:44:51;6.00;99.90
12481;DHT22;6305;48.398;11.762;2024-02-28T08:47:23;6.10;99.90
12481;DHT22;6305;48.398;11.762;2024-02-28T08:49:50;6.20;99.90
12481;DHT22;6305;48.398;11.762;2024-02-28T08:52:17;6.30;99.90
12481;DHT22;6305;48.398;11.762;2024-02-28T08:54:44;6.50;99.90
12481;DHT22;6305;48.398;11.762;2024-02-28T08:57:11;6.60;99.90
12481;DHT22;6305;48.398;11.762;2024-02-28T08:59:40;6.70;99.90
12481;DHT22;6305;48.398;11.762;2024-02-28T09:02:07;6.70;99.90
12481;DHT22;6305;48.398;11.762;2024-02-28T09:04:36;6.80;99.90
12481;DHT22;6305;48.398;11.762;2024-02-28T09:07:03;6.80;99.90
12481;DHT22;6305;48.398;11.762;2024-02-28T09:09:30;6.80;99.90
12481;DHT22;6305;48.398;11.762;2024-02-28T09:12:02;7.00;99.90
12481;DHT22;6305;48.398;11.762;2024-02-28T09:14:29;7.10;99.90
12481;DHT22;6305;48.398;11.762;2024-02-28T09:16:58;7.20;99.90
12481;DHT22;6305;48.398;11.762;2024-02-28T09:19:29;7.30;99.90
12481;DHT22;6305;48.398;11.762;2024-02-28T09:21:56;7.30;99.90
12481;DHT22;6305;48.398;11.762;2024-02-28T09:24:23;7.50;99.90
12481;DHT22;6305;48.398;11.762;2024-02-28T09:26:50;7.50;99.90
12481;DHT22;6305;48.398;11.762;2024-02-28T09:29:17;7.50;99.90
12481;DHT22;6305;48.398;11.762;2024-02-28T09:31:43;7.60;99.90
12481;DHT22;6305;48.398;11.762;2024-02-28T09:34:12;7.60;99.90
12481;DHT22;6305;48.398;11.762;2024-02-28T09:36:42;7.60;99.90
12481;DHT22;6305;48.398;11.762;2024-02-28T09:39:11;7.60;99.90
12481;DHT22;6305;48.398;11.762;2024-02-28T09:41:38;7.60;99.90
12481;DHT22;6305;48.398;11.762;2024-02-28T09:44:06;7.80;99.90
12481;DHT22;6305;48.398;11.762;2024-02-28T09:46:34;7.80;99.90
12481;DHT22;6305;48.398;11.762;2024-02-28T09:49:03;7.80;99.90
12481;DHT22;6305;48.398;11.762;2024-02-28T09:51:32;7.70;99.90
12481;DHT22;6305;48.398;11.762;2024-02-28T09:53:59;7.80;99.90
12481;DHT22;6305;48.398;11.762;2024-02-28T09:56:27;7.80;99.90
12481;DHT22;6305;48.398;11.762;2024-02-28T09:58:54;7.90;99.90
12481;DHT22;6305;48.398;11.762;2024-02-28T10:01:22;8.10;99.90
12481;DHT22;6305;48.398;11.762;2024-02-28T10:03:51;8.50;99.90
12481;DHT22;6305;48.398;11.762;2024-02-28T10:06:18;8.70;99.90
12481;DHT22;6305;48.398;11.762;2024-02-28T10:08:47;8.70;99.90
12481;DHT22;6305;48.398;11.762;2024-02-28T10:11:17;8.70;99.90
12481;DHT22;6305;48.398;11.762;2024-02-28T10:13:45;8.70;99.90
12481;DHT22;6305;48.398;11.762;2024-02-28T10:16:12;8.60;99.90
12481;DHT22;6305;48.398;11.762;2024-02-28T10:18:40;8.60;99.90
12481;DHT22;6305;48.398;11.762;2024-02-28T10:21:07;8.60;99.90
12481;DHT22;6305;48.398;11.762;2024-02-28T10:23:34;8.60;99.90
12481;DHT22;6305;48.398;11.762;2024-02-28T10:26:02;8.50;99.90
12481;DHT22;6305;48.398;11.762;2024-02-28T10:28:29;8.50;99.90
12481;DHT22;6305;48.398;11.762;2024-02-28T10:30:57;8.50;99.90
12481;DHT22;6305;48.398;11.762;2024-02-28T10:33:27;8.30;99.90
12481;DHT22;6305;48.398;11.762;2024-02-28T10:35:56;8.20;99.90
12481;DHT22;6305;48.398;11.762;2024-02-28T10:38:23;8.10;99.90
12481;DHT22;6305;48.398;11.762;2024-02-28T10:40:53;8.10;99.90
12481;DHT22;6305;48.398;11.762;2024-02-28T10:43:21;8.10;99.90
12481;DHT22;6305;48.398;11.762;2024-02-28T10:45:49;8.10;99.90
12481;DHT22;6305;48.398;11.762;2024-02-28T10:48:18;8.20;99.90
12481;DHT22;6305;48.398;11.762;2024-02-28T10:50:47;8.50;99.90
12481;DHT22;6305;48.398;11.762;2024-02-28T10:53:14;8.60;99.90
12481;DHT22;6305;48.398;11.762;2024-02-28T10:55:41;8.70;99.90
12481;DHT22;6305;48.398;11.762;2024-02-28T10:58:10;8.70;99.90
12481;DHT22;6305;48.398;11.762;2024-02-28T11:00:39;8.70;99.90
12481;DHT22;6305;48.398;11.762;2024-02-28T11:03:07;8.60;99.90
12481;DHT22;6305;48.398;11.762;2024-02-28T11:05:36;8.40;99.90
12481;DHT22;6305;48.398;11.762;2024-02-28T11:08:05;8.30;99.90
12481;DHT22;6305;48.398;11.762;2024-02-28T11:10:32;8.20;99.90
12481;DHT22;6305;48.398;11.762;2024-02-28T11:13:00;8.20;99.90
12481;DHT22;6305;48.398;11.762;2024-02-28T11:15:27;8.10;99.90
12481;DHT22;6305;48.398;11.762;2024-02-28T11:18:07;8.10;99.90
12481;DHT22;6305;48.398;11.762;2024-02-28T11:20:35;8.20;99.90
12481;DHT22;6305;48.398;11.762;2024-02-28T11:23:02;8.20;99.90
12481;DHT22;6305;48.398;11.762;2024-02-28T11:25:29;8.30;99.90
12481;DHT22;6305;48.398;11.762;2024-02-28T11:27:56;8.30;99.90
12481;DHT22;6305;48.398;11.762;2024-02-28T11:30:25;8.20;99.90
12481;DHT22;6305;48.398;11.762;2024-02-28T11:32:52;8.30;99.90
12481;DHT22;6305;48.398;11.762;2024-02-28T11:35:21;8.40;99.90
12481;DHT22;6305;48.398;11.762;2024-02-28T11:37:49;8.50;99.90
12481;DHT22;6305;48.398;11.762;2024-02-28T11:40:16;8.80;99.90
12481;DHT22;6305;48.398;11.762;2024-02-28T11:42:43;9.00;99.90
12481;DHT22;6305;48.398;11.762;2024-02-28T11:45:10;9.20;99.90
12481;DHT22;6305;48.398;11.762;2024-02-28T11:47:37;9.20;99.90
12481;DHT22;6305;48.398;11.762;2024-02-28T11:50:05;9.40;99.90
12481;DHT22;6305;48.398;11.762;2024-02-28T11:52:34;9.50;99.90
12481;DHT22;6305;48.398;11.762;2024-02-28T11:55:01;9.30;99.90
12481;DHT22;6305;48.398;11.762;2024-02-28T11:57:28;9.20;99.90
12481;DHT22;6305;48.398;11.762;2024-02-28T12:00:02;9.00;99.90
12481;DHT22;6305;48.398;11.762;2024-02-28T12:02:33;8.80;99.90
12481;DHT22;6305;48.398;11.762;2024-02-28T12:05:01;8.80;99.90
12481;DHT22;6305;48.398;11.762;2024-02-28T12:07:29;8.70;99.90
12481;DHT22;6305;48.398;11.762;2024-02-28T12:09:58;8.60;99.90
12481;DHT22;6305;48.398;11.762;2024-02-28T12:12:26;8.50;99.90
12481;DHT22;6305;48.398;11.762;2024-02-28T12:14:58;8.40;99.90
12481;DHT22;6305;48.398;11.762;2024-02-28T12:17:25;8.50;99.90
12481;DHT22;6305;48.398;11.762;2024-02-28T12:19:52;8.50;99.90
12481;DHT22;6305;48.398;11.762;2024-02-28T12:22:20;8.60;99.90
12481;DHT22;6305;48.398;11.762;2024-02-28T12:24:47;8.80;99.90
12481;DHT22;6305;48.398;11.762;2024-02-28T12:27:15;8.80;99.90
12481;DHT22;6305;48.398;11.762;2024-02-28T12:29:43;8.80;99.90
12481;DHT22;6305;48.398;11.762;2024-02-28T12:32:10;8.80;99.90
12481;DHT22;6305;48.398;11.762;2024-02-28T12:34:37;8.80;99.90
12481;DHT22;6305;48.398;11.762;2024-02-28T12:37:04;8.90;99.90
12481;DHT22;6305;48.398;11.762;2024-02-28T12:39:31;8.90;99.90
12481;DHT22;6305;48.398;11.762;2024-02-28T12:42:00;9.00;99.90
12481;DHT22;6305;48.398;11.762;2024-02-28T12:44:28;9.10;99.90
12481;DHT22;6305;48.398;11.762;2024-02-28T12:46:55;9.20;99.90
12481;DHT22;6305;48.398;11.762;2024-02-28T12:49:22;9.20;99.90
12481;DHT22;6305;48.398;11.762;2024-02-28T12:51:49;9.10;99.90
12481;DHT22;6305;48.398;11.762;2024-02-28T12:54:17;9.00;99.90
12481;DHT22;6305;48.398;11.762;2024-02-28T12:56:46;8.90;99.90
12481;DHT22;6305;48.398;11.762;2024-02-28T12:59:13;8.80;99.90
12481;DHT22;6305;48.398;11.762;2024-02-28T13:01:42;8.80;99.90
12481;DHT22;6305;48.398;11.762;2024-02-28T13:04:09;8.80;99.90
12481;DHT22;6305;48.398;11.762;2024-02-28T13:06:36;8.90;99.90
12481;DHT22;6305;48.398;11.762;2024-02-28T13:09:02;8.90;99.90
12481;DHT22;6305;48.398;11.762;2024-02-28T13:11:30;8.90;99.90
12481;DHT22;6305;48.398;11.762;2024-02-28T13:13:57;8.80;99.90
12481;DHT22;6305;48.398;11.762;2024-02-28T13:16:24;8.70;99.90
12481;DHT22;6305;48.398;11.762;2024-02-28T13:18:52;8.60;99.90
12481;DHT22;6305;48.398;11.762;2024-02-28T13:21:19;8.60;99.90
12481;DHT22;6305;48.398;11.762;2024-02-28T13:23:46;8.40;99.90
12481;DHT22;6305;48.398;11.762;2024-02-28T13:26:13;8.30;99.90
12481;DHT22;6305;48.398;11.762;2024-02-28T13:28:43;8.30;99.90
12481;DHT22;6305;48.398;11.762;2024-02-28T13:31:10;8.40;99.90
12481;DHT22;6305;48.398;11.762;2024-02-28T13:33:38;8.40;99.90
12481;DHT22;6305;48.398;11.762;2024-02-28T13:36:08;8.50;99.90
12481;DHT22;6305;48.398;11.762;2024-02-28T13:38:36;8.60;99.90
12481;DHT22;6305;48.398;11.762;2024-02-28T13:41:03;8.60;99.90
12481;DHT22;6305;48.398;11.762;2024-02-28T13:43:30;8.70;99.90
12481;DHT22;6305;48.398;11.762;2024-02-28T13:45:58;8.70;99.90
12481;DHT22;6305;48.398;11.762;2024-02-28T13:48:27;8.70;99.90
12481;DHT22;6305;48.398;11.762;2024-02-28T13:50:55;8.90;99.90
12481;DHT22;6305;48.398;11.762;2024-02-28T13:53:24;9.00;99.90
12481;DHT22;6305;48.398;11.762;2024-02-28T13:55:51;9.20;99.90
12481;DHT22;6305;48.398;11.762;2024-02-28T13:58:18;9.30;99.90
12481;DHT22;6305;48.398;11.762;2024-02-28T14:00:46;9.20;99.90
12481;DHT22;6305;48.398;11.762;2024-02-28T14:03:13;9.00;99.90
12481;DHT22;6305;48.398;11.762;2024-02-28T14:05:40;8.80;99.90
12481;DHT22;6305;48.398;11.762;2024-02-28T14:08:07;8.70;99.90
12481;DHT22;6305;48.398;11.762;2024-02-28T14:10:38;8.60;99.90
12481;DHT22;6305;48.398;11.762;2024-02-28T14:13:05;8.30;99.90
12481;DHT22;6305;48.398;11.762;2024-02-28T14:15:32;8.10;99.90
12481;DHT22;6305;48.398;11.762;2024-02-28T14:18:02;7.90;99.90
12481;DHT22;6305;48.398;11.762;2024-02-28T14:20:29;7.80;99.90
12481;DHT22;6305;48.398;11.762;2024-02-28T14:22:56;7.70;99.90
12481;DHT22;6305;48.398;11.762;2024-02-28T14:25:23;7.60;99.90
12481;DHT22;6305;48.398;11.762;2024-02-28T14:27:52;7.60;99.90
12481;DHT22;6305;48.398;11.762;2024-02-28T14:30:20;7.60;99.90
12481;DHT22;6305;48.398;11.762;2024-02-28T14:32:48;7.50;99.90
12481;DHT22;6305;48.398;11.762;2024-02-28T14:35:15;7.50;99.90
12481;DHT22;6305;48.398;11.762;2024-02-28T14:37:42;7.40;99.90
12481;DHT22;6305;48.398;11.762;2024-02-28T14:40:10;7.50;99.90
12481;DHT22;6305;48.398;11.762;2024-02-28T14:42:37;7.50;99.90
12481;DHT22;6305;48.398;11.762;2024-02-28T14:45:07;7.60;99.90
12481;DHT22;6305;48.398;11.762;2024-02-28T14:47:36;7.70;99.90
12481;DHT22;6305;48.398;11.762;2024-02-28T14:50:03;7.90;99.90
12481;DHT22;6305;48.398;11.762;2024-02-28T14:52:30;8.00;99.90
12481;DHT22;6305;48.398;11.762;2024-02-28T14:54:58;8.10;99.90
12481;DHT22;6305;48.398;11.762;2024-02-28T14:57:25;8.10;99.90
12481;DHT22;6305;48.398;11.762;2024-02-28T14:59:52;8.10;99.90
12481;DHT22;6305;48.398;11.762;2024-02-28T15:02:20;8.10;99.90
12481;DHT22;6305;48.398;11.762;2024-02-28T15:04:47;8.10;99.90
12481;DHT22;6305;48.398;11.762;2024-02-28T15:07:15;8.10;99.90
12481;DHT22;6305;48.398;11.762;2024-02-28T15:09:42;8.00;99.90
12481;DHT22;6305;48.398;11.762;2024-02-28T15:12:09;7.80;99.90
12481;DHT22;6305;48.398;11.762;2024-02-28T15:14:36;7.70;99.90
12481;DHT22;6305;48.398;11.762;2024-02-28T15:17:03;7.70;99.90
12481;DHT22;6305;48.398;11.762;2024-02-28T15:19:32;7.60;99.90
12481;DHT22;6305;48.398;11.762;2024-02-28T15:21:59;7.60;99.90
12481;DHT22;6305;48.398;11.762;2024-02-28T15:24:26;7.50;99.90
12481;DHT22;6305;48.398;11.762;2024-02-28T15:26:53;7.40;99.90
12481;DHT22;6305;48.398;11.762;2024-02-28T15:29:20;7.50;99.90
12481;DHT22;6305;48.398;11.762;2024-02-28T15:31:47;7.50;99.90
12481;DHT22;6305;48.398;11.762;2024-02-28T15:34:14;7.50;99.90
12481;DHT22;6305;48.398;11.762;2024-02-28T15:36:42;7.50;99.90
12481;DHT22;6305;48.398;11.762;2024-02-28T15:39:09;7.40;99.90
12481;DHT22;6305;48.398;11.762;2024-02-28T15:41:36;7.40;99.90
12481;DHT22;6305;48.398;11.762;2024-02-28T15:44:03;7.30;99.90
12481;DHT22;6305;48.398;11.762;2024-02-28T15:46:30;7.20;99.90